Latest Weather Observations for Lismore Airport

IDN60801

Issued at 5:32 am EST Monday 6 July 2015 (issued every 30 minutes, with the page automatically refreshed every 10 minutes)

About weather observations | Map of weather stations | Latest weather observations for NSW | Other Formats
Station Details ID: 058214 Name: LISMORE AIRPORT AWS Lat: -28.83 Lon: 153.26 Height: 9.21 m
Data from the previous 72 hours. | See also: Recent months for locations in New South Wales
Date/Time
EST
Temp
°C
App
Temp
°C
Dew
Point
Rel
Hum
%
Delta-T
°C
Wind Press
QNH
hPa
Press
MSL
hPa
Rain
since 9 am
mm
Dir
 
Spd
km/h
Gust
km/h
Spd
kts
Gust
kts
06/05:30am 6.4 3.8 6.0 97 0.2 NNE 9 13 5 7 1018.2 1018.2 0.2
06/05:00am 6.6 4.0 6.2 97 0.2 NNE 9 11 5 6 1018.1 1018.1 0.2
06/04:50am 6.7 3.8 6.3 97 0.2 NNE 11 13 6 7 1018.1 1018.1 0.2
06/04:30am 6.4 3.4 5.8 96 0.3 N 11 15 6 8 1018.2 1018.2 0.2
06/04:23am 6.5 3.1 5.9 96 0.3 N 13 17 7 9 1018.2 1018.2 0.2
06/04:00am 7.0 3.7 6.4 96 0.3 NNE 13 15 7 8 1018.3 1018.3 0.2
06/03:34am 7.4 3.9 7.0 97 0.2 N 15 17 8 9 1018.5 1018.5 0.2
06/03:30am 7.2 3.9 6.6 96 0.3 N 13 17 7 9 1018.5 1018.5 0.2
06/03:16am 7.4 4.2 6.8 96 0.3 N 13 15 7 8 1018.5 1018.5 0.2
06/03:00am 7.9 5.2 7.3 96 0.3 N 11 13 6 7 1018.6 1018.6 0.2
06/02:30am 8.0 4.6 7.6 97 0.2 N 15 17 8 9 1019.0 1019.0 0.2
06/02:00am 8.3 5.3 7.7 96 0.3 NNE 13 15 7 8 1019.3 1019.3 0.2
06/01:30am 8.7 5.8 8.3 97 0.2 N 13 17 7 9 1019.6 1019.6 0.2
06/01:00am 8.2 5.9 7.3 94 0.4 N 9 13 5 7 1019.7 1019.7 0.2
06/12:30am 9.5 6.8 8.9 96 0.3 N 13 17 7 9 1019.8 1019.8 0.2
06/12:00am 9.2 6.0 8.4 95 0.4 N 15 17 8 9 1020.0 1020.0 0.2
 
Date/Time
EST
Temp
°C
App
Temp
°C
Dew
Point
Rel
Hum
%
Delta-T
°C
Wind Press
QNH
hPa
Press
MSL
hPa
Rain
since 9 am
mm
Dir
 
Spd
km/h
Gust
km/h
Spd
kts
Gust
kts
05/11:30pm 9.8 7.9 8.9 94 0.4 NNE 9 11 5 6 1020.2 1020.2 0.2
05/11:00pm 9.7 7.7 8.6 93 0.5 N 9 11 5 6 1020.4 1020.4 0.2
05/10:30pm 10.6 9.2 9.4 92 0.6 NNE 7 11 4 6 1020.6 1020.6 0.2
05/10:00pm 10.8 9.1 9.7 93 0.6 NNE 9 11 5 6 1020.6 1020.6 0.2
05/09:30pm 10.7 8.9 9.5 92 0.6 N 9 13 5 7 1020.4 1020.4 0.2
05/09:00pm 11.2 9.1 9.6 90 0.8 N 11 13 6 7 1020.2 1020.2 0.2
05/08:30pm 11.7 11.0 10.1 90 0.8 NNE 4 11 2 6 1020.2 1020.2 0.2
05/08:00pm 12.5 9.1 10.7 89 0.9 NNW 19 22 10 12 1019.9 1019.9 0.2
05/07:30pm 12.3 9.2 10.2 87 1.1 NNW 17 19 9 10 1019.6 1019.6 0.2
05/07:00pm 12.5 9.8 10.2 86 1.2 NNW 15 19 8 10 1019.5 1019.5 0.2
05/06:30pm 13.2 10.3 9.8 80 1.7 NNW 15 17 8 9 1019.4 1019.4 0.2
05/06:00pm 13.1 10.4 8.8 75 2.2 NNW 13 15 7 8 1019.1 1019.1 0.2
05/05:30pm 14.6 12.5 9.8 73 2.5 N 11 13 6 7 1019.0 1019.0 0.2
05/05:00pm 16.8 15.0 9.5 62 3.8 NNE 9 11 5 6 1018.9 1018.9 0.2
05/04:30pm 18.0 15.4 9.4 57 4.5 NNE 13 13 7 7 1019.0 1019.0 0.2
05/04:00pm 19.6 17.1 9.8 53 5.2 N 13 17 7 9 1018.9 1018.9 0.2
05/03:30pm 20.5 17.5 9.4 49 5.9 NNW 15 20 8 11 1018.9 1018.9 0.2
05/03:00pm 21.6 18.9 8.8 44 6.8 NNW 13 20 7 11 1018.9 1018.9 0.2
05/02:30pm 20.9 17.7 9.8 49 6.0 NNW 17 24 9 13 1019.0 1019.0 0.2
05/02:00pm 21.7 17.3 6.4 37 7.7 NW 19 28 10 15 1019.2 1019.2 0.2
05/01:30pm 22.0 19.2 7.0 38 7.7 W 11 19 6 10 1019.3 1019.3 0.2
05/01:00pm 20.5 17.0 8.8 47 6.1 W 17 24 9 13 1019.6 1019.6 0.2
05/12:30pm 21.4 17.1 8.0 42 7.0 NW 20 28 11 15 1020.0 1020.0 0.2
05/12:00pm 21.2 17.8 7.8 42 6.9 WNW 15 24 8 13 1020.5 1020.5 0.0
05/11:30am 20.1 18.9 11.6 58 4.7 N 9 15 5 8 1021.3 1021.3 0.0
05/11:00am 18.8 18.8 12.5 67 3.5 ENE 4 9 2 5 1021.8 1021.8 0.0
05/10:30am 16.9 17.8 12.8 77 2.3 CALM 0 0 0 0 1022.2 1022.2 0.0
05/10:00am 15.0 14.9 12.0 82 1.6 N 4 7 2 4 1022.5 1022.5 0.0
05/09:30am 13.3 12.1 11.7 90 0.9 N 9 13 5 7 1022.7 1022.7 0.0
05/09:01am 11.8 10.5 11.2 96 0.3 NNE 9 13 5 7 1022.7 1022.7 0.0
05/08:55am 11.3 10.2 10.8 97 0.3 NNE 7 9 4 5 1022.7 1022.7 0.0
05/08:38am 10.1 8.4 9.8 98 0.2 NNE 9 13 5 7 1022.7 1022.7 0.0
05/08:30am 10.0 8.3 9.9 99 0.1 N 9 11 5 6 1022.8 1022.8 0.0
05/08:19am 9.6 7.8 9.6 100 0.0 N 9 13 5 7 1022.8 1022.8 0.0
05/08:00am 8.5 6.8 8.4 99 0.0 N 7 11 4 6 1022.7 1022.7 0.0
05/07:48am 8.1 5.9 8.0 99 0.0 NNE 9 13 5 7 1022.5 1022.5 0.0
05/07:34am 7.8 7.3 7.7 99 0.0 CALM 0 0 0 0 1022.5 1022.5 0.0
05/07:32am 7.7 7.1 7.6 99 0.0 CALM 0 0 0 0 1022.4 1022.4 0.0
05/07:31am 7.7 7.1 7.6 99 0.0 CALM 0 0 0 0 1022.4 1022.4 0.0
05/07:30am 7.7 7.1 7.6 99 0.0 CALM 0 0 0 0 1022.5 1022.5 0.0
05/07:19am 7.6 7.0 7.5 99 0.0 CALM 0 0 0 0 1022.4 1022.4 0.0
05/07:18am 7.6 7.0 7.5 99 0.0 CALM 0 0 0 0 1022.4 1022.4 0.0
05/07:14am 7.4 6.8 7.3 99 0.0 CALM 0 0 0 0 1022.4 1022.4 0.0
05/07:13am 7.3 6.7 7.2 99 0.0 CALM 0 0 0 0 1022.4 1022.4 0.0
05/07:09am 7.2 6.5 7.1 99 0.0 CALM 0 0 0 0 1022.4 1022.4 0.0
05/07:00am 7.0 6.2 6.7 98 0.1 CALM 0 0 0 0 1022.4 1022.4 0.0
05/06:30am 6.1 5.1 5.7 97 0.2 CALM 0 0 0 0 1022.1 1022.1 0.0
05/06:00am 5.9 4.9 5.5 97 0.2 CALM 0 0 0 0 1021.8 1021.8 0.0
05/05:30am 5.9 4.9 5.5 97 0.2 CALM 0 0 0 0 1021.4 1021.4 0.0
05/05:00am 6.2 5.2 5.6 96 0.3 CALM 0 0 0 0 1021.0 1021.0 0.0
05/04:30am 6.7 5.7 5.8 94 0.4 CALM 0 0 0 0 1021.2 1021.2 0.0
05/04:00am 7.5 6.8 6.8 95 0.3 CALM 0 0 0 0 1021.3 1021.3 0.0
05/03:39am 8.4 7.8 7.6 95 0.4 CALM 0 0 0 0 1021.3 1021.3 0.0
05/03:30am 8.4 7.8 7.3 93 0.5 CALM 0 0 0 0 1021.3 1021.3 0.0
05/03:29am 8.4 7.8 7.3 93 0.5 CALM 0 0 0 0 1021.3 1021.3 0.0
05/03:22am 8.7 8.1 7.6 93 0.5 CALM 0 0 0 0 1021.3 1021.3 0.0
05/03:00am 9.9 9.0 9.1 95 0.4 NNE 4 9 2 5 1021.5 1021.5 0.0
05/02:30am 9.8 7.9 9.2 96 0.3 N 9 11 5 6 1021.7 1021.7 0.0
05/02:00am 9.7 8.2 9.1 96 0.3 NNE 7 9 4 5 1021.8 1021.8 0.0
05/01:30am 9.5 8.1 8.7 95 0.4 NNE 6 9 3 5 1021.9 1021.9 0.0
05/01:00am 9.7 7.7 8.8 94 0.4 N 9 11 5 6 1022.0 1022.0 0.0
05/12:30am 10.5 8.8 9.7 95 0.4 NNE 9 9 5 5 1022.0 1022.0 0.0
05/12:00am 10.5 8.8 9.9 96 0.3 N 9 13 5 7 1022.1 1022.1 0.0
 
Date/Time
EST
Temp
°C
App
Temp
°C
Dew
Point
Rel
Hum
%
Delta-T
°C
Wind Press
QNH
hPa
Press
MSL
hPa
Rain
since 9 am
mm
Dir
 
Spd
km/h
Gust
km/h
Spd
kts
Gust
kts
04/11:30pm 10.6 8.9 10.0 96 0.3 N 9 13 5 7 1022.0 1022.0 0.0
04/11:00pm 10.4 7.9 9.8 96 0.3 N 13 15 7 8 1022.1 1022.1 0.0
04/10:30pm 10.3 7.8 9.8 97 0.3 N 13 15 7 8 1021.9 1021.9 0.0
04/10:00pm 9.4 6.7 8.8 96 0.3 N 13 15 7 8 1022.1 1022.1 0.0
04/09:30pm 9.4 6.7 8.8 96 0.3 N 13 15 7 8 1022.0 1022.0 0.0
04/09:00pm 10.1 7.5 9.5 96 0.3 NNW 13 15 7 8 1021.8 1021.8 0.0
04/08:30pm 9.4 6.5 8.3 93 0.5 NNW 13 15 7 8 1021.6 1021.6 0.0
04/08:00pm 10.0 7.7 8.9 93 0.5 N 11 13 6 7 1021.6 1021.6 0.0
04/07:30pm 9.9 7.2 9.0 94 0.4 N 13 15 7 8 1021.5 1021.5 0.0
04/07:00pm 9.1 7.1 7.1 87 0.9 NNW 7 7 4 4 1021.3 1021.3 0.0
04/06:30pm 10.6 10.4 8.9 89 0.8 CALM 0 0 0 0 1021.0 1021.0 0.0
04/06:00pm 11.3 11.0 8.5 83 1.4 CALM 0 6 0 3 1020.6 1020.6 0.0
04/05:30pm 12.8 12.7 9.3 79 1.8 CALM 0 0 0 0 1020.4 1020.4 0.0
04/05:00pm 15.0 14.9 9.6 70 2.8 CALM 0 0 0 0 1020.2 1020.2 0.0
04/04:30pm 18.2 18.0 10.3 60 4.2 NE 2 9 1 5 1020.2 1020.2 0.0
04/04:00pm 19.6 19.6 9.8 53 5.2 CALM 0 6 0 3 1020.3 1020.3 0.0
04/03:30pm 20.0 18.7 9.9 52 5.4 NNW 7 11 4 6 1020.4 1020.4 0.0
04/03:00pm 20.2 19.0 9.5 50 5.7 NNW 6 11 3 6 1020.4 1020.4 0.0
04/02:30pm 20.3 19.9 9.8 51 5.6 WNW 2 9 1 5 1020.5 1020.5 0.0
04/02:00pm 19.6 18.5 9.8 53 5.2 S 6 13 3 7 1020.7 1020.7 0.0
04/01:30pm 19.0 17.8 9.5 54 5.0 WSW 6 11 3 6 1021.0 1021.0 0.0
04/01:00pm 18.7 17.6 10.0 57 4.6 SW 6 19 3 10 1021.4 1021.4 0.0
04/12:30pm 18.2 16.3 9.0 55 4.8 WNW 9 17 5 9 1022.1 1022.1 0.0
04/12:00pm 17.9 15.2 9.0 56 4.6 SW 13 19 7 10 1022.7 1022.7 0.0
04/11:30am 17.4 15.2 9.3 59 4.2 WSW 11 17 6 9 1023.3 1023.3 0.0
04/11:00am 16.9 14.3 9.3 61 3.9 WSW 13 17 7 9 1023.8 1023.8 0.0
04/10:30am 16.1 14.4 8.3 60 4.0 W 7 13 4 7 1024.2 1024.2 0.0
04/10:00am 15.2 15.1 9.3 68 3.0 CALM 0 6 0 3 1024.5 1024.5 0.0
04/09:30am 13.8 13.7 9.6 76 2.2 CALM 0 0 0 0 1024.7 1024.7 0.0
04/09:00am 11.6 11.3 8.8 83 1.4 CALM 0 0 0 0 1024.6 1024.6 0.0
04/08:30am 10.5 10.2 8.6 88 0.9 CALM 0 0 0 0 1024.7 1024.7 0.0
04/08:00am 8.6 7.7 7.8 95 0.4 SSW 2 6 1 3 1024.2 1024.2 0.0
04/07:30am 7.7 7.1 7.4 98 0.1 CALM 0 0 0 0 1024.0 1024.0 0.0
04/07:00am 5.3 2.7 4.4 94 0.4 W 7 9 4 5 1023.8 1023.8 0.0
04/06:30am 5.5 4.2 4.3 92 0.5 CALM 0 7 0 4 1023.8 1023.8 0.0
04/06:00am 6.1 3.8 4.6 90 0.6 NNW 6 9 3 5 1023.4 1023.4 0.0
04/05:30am 7.2 6.3 6.1 93 0.5 CALM 0 7 0 4 1023.3 1023.3 0.0
04/05:00am 7.9 4.7 7.0 94 0.4 N 13 15 7 8 1023.1 1023.1 0.0
04/04:30am 8.1 7.5 7.2 94 0.4 CALM 0 0 0 0 1023.4 1023.4 0.0
04/04:00am 8.4 6.1 7.6 95 0.4 N 9 13 5 7 1023.8 1023.8 0.0
04/03:30am 7.9 6.0 7.5 97 0.2 N 7 9 4 5 1023.9 1023.9 0.0
04/03:00am 6.8 4.3 6.4 97 0.2 NNW 9 11 5 6 1023.7 1023.7 0.0
04/02:30am 5.4 3.4 4.4 93 0.4 NE 4 9 2 5 1023.4 1023.4 0.0
04/02:00am 7.0 4.5 6.4 96 0.3 NNE 9 11 5 6 1023.4 1023.4 0.0
04/01:30am 5.8 4.7 5.1 95 0.3 CALM 0 0 0 0 1023.5 1023.5 0.0
04/01:00am 7.2 5.1 6.6 96 0.3 N 7 9 4 5 1023.6 1023.6 0.0
04/12:30am 6.4 4.7 5.7 95 0.3 N 4 9 2 5 1023.6 1023.6 0.0
04/12:00am 7.4 4.5 6.5 94 0.4 N 11 13 6 7 1023.8 1023.8 0.0
 
Date/Time
EST
Temp
°C
App
Temp
°C
Dew
Point
Rel
Hum
%
Delta-T
°C
Wind Press
QNH
hPa
Press
MSL
hPa
Rain
since 9 am
mm
Dir
 
Spd
km/h
Gust
km/h
Spd
kts
Gust
kts
03/11:30pm 7.7 5.3 7.0 95 0.3 N 9 11 5 6 1023.9 1023.9 0.0
03/11:00pm 8.0 5.2 6.9 93 0.5 N 11 13 6 7 1024.2 1024.2 0.0
03/10:30pm 8.1 6.6 6.7 91 0.6 S 4 9 2 5 1024.2 1024.2 0.0
03/10:00pm 8.3 6.0 7.4 94 0.4 N 9 15 5 8 1024.2 1024.2 0.0
03/09:30pm 8.8 6.6 7.7 93 0.5 N 9 11 5 6 1024.0 1024.0 0.0
03/09:00pm 8.2 5.1 7.1 93 0.5 N 13 13 7 7 1024.1 1024.1 0.0
03/08:30pm 8.8 8.1 7.1 89 0.8 CALM 0 0 0 0 1023.8 1023.8 0.0
03/08:00pm 9.6 9.1 8.0 90 0.8 CALM 0 0 0 0 1023.8 1023.8 0.0
03/07:30pm 9.8 8.0 8.1 89 0.8 N 7 7 4 4 1023.7 1023.7 0.0
03/07:00pm 10.5 8.5 8.8 89 0.8 NNW 9 11 5 6 1023.5 1023.5 0.0
03/06:30pm 10.1 9.6 7.9 86 1.1 CALM 0 6 0 3 1023.3 1023.3 0.0
03/06:00pm 10.6 8.9 7.7 82 1.4 SSW 6 7 3 4 1022.9 1022.9 0.0
03/05:30pm 11.5 9.8 7.6 77 1.9 SSW 6 7 3 4 1022.7 1022.7 0.0
03/05:00pm 14.0 12.0 8.6 70 2.7 SSE 9 11 5 6 1022.5 1022.5 0.0
03/04:30pm 16.0 12.9 9.0 63 3.6 SSE 15 22 8 12 1022.3 1022.3 0.0
03/04:00pm 17.3 13.6 7.9 54 4.7 SSW 17 24 9 13 1022.0 1022.0 0.0
03/03:30pm 17.7 14.0 8.0 53 4.9 SSW 17 24 9 13 1021.8 1021.8 0.0
03/03:00pm 17.8 13.9 7.2 50 5.3 S 17 26 9 14 1021.8 1021.8 0.0
03/02:30pm 18.1 13.9 7.5 50 5.4 S 19 24 10 13 1021.8 1021.8 0.0
03/02:00pm 18.0 13.9 8.0 52 5.1 S 19 22 10 12 1021.7 1021.7 0.0
03/01:30pm 17.9 14.5 7.6 51 5.2 SSW 15 22 8 12 1021.8 1021.8 0.0
03/01:00pm 17.4 13.4 8.3 55 4.6 S 19 26 10 14 1022.0 1022.0 0.0
03/12:30pm 17.3 13.3 8.4 56 4.6 SSW 19 30 10 16 1022.5 1022.5 0.0
03/12:00pm 17.0 12.4 8.2 56 4.5 SSW 22 28 12 15 1022.8 1022.8 0.0
03/11:30am 16.0 11.0 6.4 53 4.7 SW 22 30 12 16 1023.3 1023.3 0.0
03/11:00am 15.4 11.0 5.0 50 4.9 SW 17 28 9 15 1023.7 1023.7 0.0
03/10:30am 14.7 10.2 4.4 50 4.8 WSW 17 24 9 13 1023.8 1023.8 0.0
03/10:00am 14.2 10.0 3.7 49 4.7 WSW 15 20 8 11 1024.0 1024.0 0.0
03/09:30am 12.7 10.8 7.4 70 2.6 N 7 11 4 6 1024.0 1024.0 0.0
03/09:00am 10.1 7.7 7.2 82 1.4 N 9 15 5 8 1023.8 1023.8 0.0
03/08:30am 7.9 4.9 6.2 89 0.8 NNW 11 19 6 10 1023.9 1023.9 0.0
03/08:00am 5.9 1.8 4.4 90 0.6 N 15 19 8 10 1023.6 1023.6 0.0
03/07:30am 5.0 0.8 3.8 92 0.5 NNW 15 17 8 9 1023.3 1023.3 0.0
03/07:00am 3.6 0.9 2.6 93 0.4 N 6 11 3 6 1023.1 1023.1 0.0
03/06:30am 3.4 -0.2 2.7 95 0.3 NNW 11 15 6 8 1022.7 1022.7 0.0
03/06:00am 3.1 1.1 2.4 95 0.3 NNW 2 7 1 4 1022.3 1022.3 0.0

Other Formats:

Comma delimited format used in spreadsheet applications
http://www.bom.gov.au/fwo/IDN60801/IDN60801.94572.axf

JavaScript Object Notation format (JSON) in row-major order
http://www.bom.gov.au/fwo/IDN60801/IDN60801.94572.json